sensor_id;sensor_type;location;lat;lon;timestamp;temperature;humidity
4813;DHT22;2420;51.202;8.698;2023-06-19T00:01:10;20.60;1.00
4813;DHT22;2420;51.202;8.698;2023-06-19T00:03:35;20.50;1.00
4813;DHT22;2420;51.202;8.698;2023-06-19T00:06:01;20.60;1.00
4813;DHT22;2420;51.202;8.698;2023-06-19T00:08:26;20.40;1.00
4813;DHT22;2420;51.202;8.698;2023-06-19T00:10:52;20.40;1.00
4813;DHT22;2420;51.202;8.698;2023-06-19T00:13:17;20.50;1.00
4813;DHT22;2420;51.202;8.698;2023-06-19T00:15:44;20.40;1.00
4813;DHT22;2420;51.202;8.698;2023-06-19T00:18:10;20.40;1.00
4813;DHT22;2420;51.202;8.698;2023-06-19T00:20:36;20.40;1.00
4813;DHT22;2420;51.202;8.698;2023-06-19T00:23:01;20.30;1.00
4813;DHT22;2420;51.202;8.698;2023-06-19T00:25:27;20.20;1.00
4813;DHT22;2420;51.202;8.698;2023-06-19T00:27:52;20.30;1.00
4813;DHT22;2420;51.202;8.698;2023-06-19T00:30:18;20.10;1.00
4813;DHT22;2420;51.202;8.698;2023-06-19T00:32:43;20.10;1.00
4813;DHT22;2420;51.202;8.698;2023-06-19T00:35:14;20.00;1.00
4813;DHT22;2420;51.202;8.698;2023-06-19T00:37:39;19.90;1.00
4813;DHT22;2420;51.202;8.698;2023-06-19T00:40:07;19.90;1.00
4813;DHT22;2420;51.202;8.698;2023-06-19T00:42:34;19.90;1.00
4813;DHT22;2420;51.202;8.698;2023-06-19T00:45:00;19.90;1.00
4813;DHT22;2420;51.202;8.698;2023-06-19T00:47:25;19.80;1.00
4813;DHT22;2420;51.202;8.698;2023-06-19T00:49:51;19.80;1.00
4813;DHT22;2420;51.202;8.698;2023-06-19T00:52:17;19.80;1.00
4813;DHT22;2420;51.202;8.698;2023-06-19T00:54:43;19.80;1.00
4813;DHT22;2420;51.202;8.698;2023-06-19T00:57:09;19.90;1.00
4813;DHT22;2420;51.202;8.698;2023-06-19T00:59:35;19.90;1.00
4813;DHT22;2420;51.202;8.698;2023-06-19T01:02:01;20.00;1.00
4813;DHT22;2420;51.202;8.698;2023-06-19T01:04:28;19.90;1.00
4813;DHT22;2420;51.202;8.698;2023-06-19T01:07:03;19.90;1.00
4813;DHT22;2420;51.202;8.698;2023-06-19T01:09:42;19.90;1.00
4813;DHT22;2420;51.202;8.698;2023-06-19T01:12:16;19.90;1.00
4813;DHT22;2420;51.202;8.698;2023-06-19T01:15:11;19.90;1.00
4813;DHT22;2420;51.202;8.698;2023-06-19T01:17:38;19.90;1.00
4813;DHT22;2420;51.202;8.698;2023-06-19T01:20:04;19.90;1.00
4813;DHT22;2420;51.202;8.698;2023-06-19T01:22:36;19.90;1.00
4813;DHT22;2420;51.202;8.698;2023-06-19T01:25:02;19.80;1.00
4813;DHT22;2420;51.202;8.698;2023-06-19T01:27:29;19.80;1.00
4813;DHT22;2420;51.202;8.698;2023-06-19T01:29:56;19.80;1.00
4813;DHT22;2420;51.202;8.698;2023-06-19T01:32:28;19.70;1.00
4813;DHT22;2420;51.202;8.698;2023-06-19T01:34:57;19.60;1.00
4813;DHT22;2420;51.202;8.698;2023-06-19T01:37:25;19.60;1.00
4813;DHT22;2420;51.202;8.698;2023-06-19T01:39:55;19.60;1.00
4813;DHT22;2420;51.202;8.698;2023-06-19T01:42:22;19.60;1.00
4813;DHT22;2420;51.202;8.698;2023-06-19T01:44:47;19.50;1.00
4813;DHT22;2420;51.202;8.698;2023-06-19T01:47:13;19.50;1.00
4813;DHT22;2420;51.202;8.698;2023-06-19T01:49:41;19.40;1.00
4813;DHT22;2420;51.202;8.698;2023-06-19T01:52:06;19.20;1.00
4813;DHT22;2420;51.202;8.698;2023-06-19T01:54:32;19.10;1.00
4813;DHT22;2420;51.202;8.698;2023-06-19T01:56:58;19.00;1.00
4813;DHT22;2420;51.202;8.698;2023-06-19T01:59:24;19.10;1.00
4813;DHT22;2420;51.202;8.698;2023-06-19T02:01:49;19.10;1.00
4813;DHT22;2420;51.202;8.698;2023-06-19T02:04:15;19.00;1.00
4813;DHT22;2420;51.202;8.698;2023-06-19T02:06:40;19.00;1.00
4813;DHT22;2420;51.202;8.698;2023-06-19T02:09:06;19.00;1.00
4813;DHT22;2420;51.202;8.698;2023-06-19T02:11:33;19.00;1.00
4813;DHT22;2420;51.202;8.698;2023-06-19T02:13:58;19.00;1.00
4813;DHT22;2420;51.202;8.698;2023-06-19T02:16:24;18.90;1.00
4813;DHT22;2420;51.202;8.698;2023-06-19T02:18:49;18.90;1.00
4813;DHT22;2420;51.202;8.698;2023-06-19T02:21:15;18.90;1.00
4813;DHT22;2420;51.202;8.698;2023-06-19T02:23:40;18.90;1.00
4813;DHT22;2420;51.202;8.698;2023-06-19T02:26:06;18.90;1.00
4813;DHT22;2420;51.202;8.698;2023-06-19T02:28:31;18.90;1.00
4813;DHT22;2420;51.202;8.698;2023-06-19T02:30:57;19.00;1.00
4813;DHT22;2420;51.202;8.698;2023-06-19T02:33:22;18.90;1.00
4813;DHT22;2420;51.202;8.698;2023-06-19T02:35:48;18.90;1.00
4813;DHT22;2420;51.202;8.698;2023-06-19T02:38:13;19.00;1.00
4813;DHT22;2420;51.202;8.698;2023-06-19T02:40:40;19.00;1.00
4813;DHT22;2420;51.202;8.698;2023-06-19T02:43:05;19.00;1.00
4813;DHT22;2420;51.202;8.698;2023-06-19T02:45:31;19.00;1.00
4813;DHT22;2420;51.202;8.698;2023-06-19T02:47:56;18.90;1.00
4813;DHT22;2420;51.202;8.698;2023-06-19T02:50:22;18.80;1.00
4813;DHT22;2420;51.202;8.698;2023-06-19T02:52:47;18.90;1.00
4813;DHT22;2420;51.202;8.698;2023-06-19T02:55:13;18.80;1.00
4813;DHT22;2420;51.202;8.698;2023-06-19T02:57:39;18.80;1.00
4813;DHT22;2420;51.202;8.698;2023-06-19T03:00:05;18.80;1.00
4813;DHT22;2420;51.202;8.698;2023-06-19T03:02:35;18.80;1.00
4813;DHT22;2420;51.202;8.698;2023-06-19T03:05:02;18.80;1.00
4813;DHT22;2420;51.202;8.698;2023-06-19T03:07:28;18.80;1.00
4813;DHT22;2420;51.202;8.698;2023-06-19T03:09:54;18.80;1.00
4813;DHT22;2420;51.202;8.698;2023-06-19T03:12:19;18.80;1.00
4813;DHT22;2420;51.202;8.698;2023-06-19T03:14:45;18.90;1.00
4813;DHT22;2420;51.202;8.698;2023-06-19T03:17:11;18.90;1.00
4813;DHT22;2420;51.202;8.698;2023-06-19T03:19:37;18.90;1.00
4813;DHT22;2420;51.202;8.698;2023-06-19T03:22:03;18.80;1.00
4813;DHT22;2420;51.202;8.698;2023-06-19T03:24:28;18.90;1.00
4813;DHT22;2420;51.202;8.698;2023-06-19T03:26:54;18.90;1.00
4813;DHT22;2420;51.202;8.698;2023-06-19T03:29:19;18.90;1.00
4813;DHT22;2420;51.202;8.698;2023-06-19T03:31:45;18.90;1.00
4813;DHT22;2420;51.202;8.698;2023-06-19T03:34:10;18.80;1.00
4813;DHT22;2420;51.202;8.698;2023-06-19T03:36:36;18.80;1.00
4813;DHT22;2420;51.202;8.698;2023-06-19T03:39:01;18.90;1.00
4813;DHT22;2420;51.202;8.698;2023-06-19T03:41:27;18.90;1.00
4813;DHT22;2420;51.202;8.698;2023-06-19T03:43:53;18.90;1.00
4813;DHT22;2420;51.202;8.698;2023-06-19T03:46:18;18.90;1.00
4813;DHT22;2420;51.202;8.698;2023-06-19T03:48:44;18.90;1.00
4813;DHT22;2420;51.202;8.698;2023-06-19T03:51:09;18.90;1.00
4813;DHT22;2420;51.202;8.698;2023-06-19T03:53:35;18.80;1.00
4813;DHT22;2420;51.202;8.698;2023-06-19T03:56:00;18.80;1.00
4813;DHT22;2420;51.202;8.698;2023-06-19T03:58:26;18.80;1.00
4813;DHT22;2420;51.202;8.698;2023-06-19T04:00:51;18.80;1.00
4813;DHT22;2420;51.202;8.698;2023-06-19T04:03:17;18.90;1.00
4813;DHT22;2420;51.202;8.698;2023-06-19T04:05:42;18.90;1.00
4813;DHT22;2420;51.202;8.698;2023-06-19T04:08:08;18.80;1.00
4813;DHT22;2420;51.202;8.698;2023-06-19T04:10:34;18.80;1.00
4813;DHT22;2420;51.202;8.698;2023-06-19T04:12:59;18.70;1.00
4813;DHT22;2420;51.202;8.698;2023-06-19T04:15:25;18.70;1.00
4813;DHT22;2420;51.202;8.698;2023-06-19T04:17:50;18.60;1.00
4813;DHT22;2420;51.202;8.698;2023-06-19T04:20:16;18.50;1.00
4813;DHT22;2420;51.202;8.698;2023-06-19T04:22:42;18.60;1.00
4813;DHT22;2420;51.202;8.698;2023-06-19T04:25:10;18.70;1.00
4813;DHT22;2420;51.202;8.698;2023-06-19T04:27:36;18.60;1.00
4813;DHT22;2420;51.202;8.698;2023-06-19T04:30:03;18.60;1.00
4813;DHT22;2420;51.202;8.698;2023-06-19T04:32:29;18.60;1.00
4813;DHT22;2420;51.202;8.698;2023-06-19T04:34:55;18.60;1.00
4813;DHT22;2420;51.202;8.698;2023-06-19T04:37:20;18.70;1.00
4813;DHT22;2420;51.202;8.698;2023-06-19T04:39:46;18.80;1.00
4813;DHT22;2420;51.202;8.698;2023-06-19T04:42:17;18.90;1.00
4813;DHT22;2420;51.202;8.698;2023-06-19T04:44:49;18.90;1.00
4813;DHT22;2420;51.202;8.698;2023-06-19T04:47:17;19.00;1.00
4813;DHT22;2420;51.202;8.698;2023-06-19T04:49:42;19.20;1.00
4813;DHT22;2420;51.202;8.698;2023-06-19T04:52:08;19.10;1.00
4813;DHT22;2420;51.202;8.698;2023-06-19T04:54:34;19.30;1.00
4813;DHT22;2420;51.202;8.698;2023-06-19T04:57:00;19.40;1.00
4813;DHT22;2420;51.202;8.698;2023-06-19T04:59:26;19.50;1.00
4813;DHT22;2420;51.202;8.698;2023-06-19T05:01:52;19.60;1.00
4813;DHT22;2420;51.202;8.698;2023-06-19T05:04:22;20.00;1.00
4813;DHT22;2420;51.202;8.698;2023-06-19T05:06:48;20.20;1.00
4813;DHT22;2420;51.202;8.698;2023-06-19T05:09:14;20.60;1.00
4813;DHT22;2420;51.202;8.698;2023-06-19T05:11:40;21.10;1.00
4813;DHT22;2420;51.202;8.698;2023-06-19T05:14:05;21.60;1.00
4813;DHT22;2420;51.202;8.698;2023-06-19T05:16:31;21.90;1.00
4813;DHT22;2420;51.202;8.698;2023-06-19T05:18:56;22.20;1.00
4813;DHT22;2420;51.202;8.698;2023-06-19T05:21:22;22.30;1.00
4813;DHT22;2420;51.202;8.698;2023-06-19T05:23:47;22.50;1.00
4813;DHT22;2420;51.202;8.698;2023-06-19T05:26:16;22.70;1.00
4813;DHT22;2420;51.202;8.698;2023-06-19T05:28:42;22.80;1.00
4813;DHT22;2420;51.202;8.698;2023-06-19T05:31:08;23.00;1.00
4813;DHT22;2420;51.202;8.698;2023-06-19T05:33:33;23.00;1.00
4813;DHT22;2420;51.202;8.698;2023-06-19T05:35:59;23.10;1.00
4813;DHT22;2420;51.202;8.698;2023-06-19T05:38:24;23.30;1.00
4813;DHT22;2420;51.202;8.698;2023-06-19T05:40:51;23.40;1.00
4813;DHT22;2420;51.202;8.698;2023-06-19T05:43:17;23.60;1.00
4813;DHT22;2420;51.202;8.698;2023-06-19T05:45:44;23.70;1.00
4813;DHT22;2420;51.202;8.698;2023-06-19T05:48:10;23.80;1.00
4813;DHT22;2420;51.202;8.698;2023-06-19T05:50:35;24.00;1.00
4813;DHT22;2420;51.202;8.698;2023-06-19T05:53:01;24.10;1.00
4813;DHT22;2420;51.202;8.698;2023-06-19T05:55:26;24.10;1.00
4813;DHT22;2420;51.202;8.698;2023-06-19T05:57:55;24.10;1.00
4813;DHT22;2420;51.202;8.698;2023-06-19T06:00:21;24.10;1.00
4813;DHT22;2420;51.202;8.698;2023-06-19T06:02:48;24.10;1.00
4813;DHT22;2420;51.202;8.698;2023-06-19T06:05:14;24.10;1.00
4813;DHT22;2420;51.202;8.698;2023-06-19T06:07:39;24.10;1.00
4813;DHT22;2420;51.202;8.698;2023-06-19T06:10:05;24.20;1.00
4813;DHT22;2420;51.202;8.698;2023-06-19T06:12:34;24.20;1.00
4813;DHT22;2420;51.202;8.698;2023-06-19T06:15:04;24.20;1.00
4813;DHT22;2420;51.202;8.698;2023-06-19T06:17:30;24.30;1.00
4813;DHT22;2420;51.202;8.698;2023-06-19T06:19:55;24.40;1.00
4813;DHT22;2420;51.202;8.698;2023-06-19T06:22:21;24.10;1.00
4813;DHT22;2420;51.202;8.698;2023-06-19T06:24:46;24.10;1.00
4813;DHT22;2420;51.202;8.698;2023-06-19T06:27:12;24.10;1.00
4813;DHT22;2420;51.202;8.698;2023-06-19T06:29:38;24.00;1.00
4813;DHT22;2420;51.202;8.698;2023-06-19T06:32:09;24.00;1.00
4813;DHT22;2420;51.202;8.698;2023-06-19T06:34:35;24.00;1.00
4813;DHT22;2420;51.202;8.698;2023-06-19T06:37:00;23.90;1.00
4813;DHT22;2420;51.202;8.698;2023-06-19T06:39:26;23.90;1.00
4813;DHT22;2420;51.202;8.698;2023-06-19T06:41:52;24.00;1.00
4813;DHT22;2420;51.202;8.698;2023-06-19T06:44:18;24.00;1.00
4813;DHT22;2420;51.202;8.698;2023-06-19T06:46:43;24.00;1.00
4813;DHT22;2420;51.202;8.698;2023-06-19T06:49:09;24.00;1.00
4813;DHT22;2420;51.202;8.698;2023-06-19T06:51:34;24.00;1.00
4813;DHT22;2420;51.202;8.698;2023-06-19T06:54:00;24.20;1.00
4813;DHT22;2420;51.202;8.698;2023-06-19T06:56:25;24.30;1.00
4813;DHT22;2420;51.202;8.698;2023-06-19T06:58:51;24.30;1.00
4813;DHT22;2420;51.202;8.698;2023-06-19T07:01:17;24.30;1.00
4813;DHT22;2420;51.202;8.698;2023-06-19T07:03:43;24.40;1.00
4813;DHT22;2420;51.202;8.698;2023-06-19T07:06:08;24.50;1.00
4813;DHT22;2420;51.202;8.698;2023-06-19T07:08:34;24.70;1.00
4813;DHT22;2420;51.202;8.698;2023-06-19T07:10:59;24.70;1.00
4813;DHT22;2420;51.202;8.698;2023-06-19T07:13:25;25.00;1.00
4813;DHT22;2420;51.202;8.698;2023-06-19T07:15:51;25.10;1.00
4813;DHT22;2420;51.202;8.698;2023-06-19T07:18:16;24.90;1.00
4813;DHT22;2420;51.202;8.698;2023-06-19T07:20:42;24.90;1.00
4813;DHT22;2420;51.202;8.698;2023-06-19T07:23:09;24.70;1.00
4813;DHT22;2420;51.202;8.698;2023-06-19T07:25:35;24.60;1.00
4813;DHT22;2420;51.202;8.698;2023-06-19T07:28:00;24.60;1.00
4813;DHT22;2420;51.202;8.698;2023-06-19T07:30:26;24.50;1.00
4813;DHT22;2420;51.202;8.698;2023-06-19T07:32:52;24.30;1.00
4813;DHT22;2420;51.202;8.698;2023-06-19T07:35:18;24.50;1.00
4813;DHT22;2420;51.202;8.698;2023-06-19T07:37:44;24.80;1.00
4813;DHT22;2420;51.202;8.698;2023-06-19T07:40:10;25.00;1.00
4813;DHT22;2420;51.202;8.698;2023-06-19T07:42:36;25.10;1.00
4813;DHT22;2420;51.202;8.698;2023-06-19T07:45:02;25.20;1.00
4813;DHT22;2420;51.202;8.698;2023-06-19T07:47:28;25.50;1.00
4813;DHT22;2420;51.202;8.698;2023-06-19T07:49:54;25.70;1.00
4813;DHT22;2420;51.202;8.698;2023-06-19T07:52:19;25.90;1.00
4813;DHT22;2420;51.202;8.698;2023-06-19T07:54:56;25.90;1.00
4813;DHT22;2420;51.202;8.698;2023-06-19T07:57:23;25.90;1.00
4813;DHT22;2420;51.202;8.698;2023-06-19T07:59:49;26.10;1.00
4813;DHT22;2420;51.202;8.698;2023-06-19T08:02:16;26.10;1.00
4813;DHT22;2420;51.202;8.698;2023-06-19T08:04:41;26.20;1.00
4813;DHT22;2420;51.202;8.698;2023-06-19T08:07:07;26.20;1.00
4813;DHT22;2420;51.202;8.698;2023-06-19T08:09:33;26.00;1.00
4813;DHT22;2420;51.202;8.698;2023-06-19T08:11:58;25.90;1.00
4813;DHT22;2420;51.202;8.698;2023-06-19T08:14:24;25.80;1.00
4813;DHT22;2420;51.202;8.698;2023-06-19T08:16:49;25.70;1.00
4813;DHT22;2420;51.202;8.698;2023-06-19T08:19:15;25.80;1.00
4813;DHT22;2420;51.202;8.698;2023-06-19T08:21:40;25.90;1.00
4813;DHT22;2420;51.202;8.698;2023-06-19T08:24:06;26.00;1.00
4813;DHT22;2420;51.202;8.698;2023-06-19T08:26:32;26.10;1.00
4813;DHT22;2420;51.202;8.698;2023-06-19T08:28:57;26.10;1.00
4813;DHT22;2420;51.202;8.698;2023-06-19T08:31:23;26.10;1.00
4813;DHT22;2420;51.202;8.698;2023-06-19T08:33:55;26.30;1.00
4813;DHT22;2420;51.202;8.698;2023-06-19T08:36:21;26.20;1.00
4813;DHT22;2420;51.202;8.698;2023-06-19T08:38:47;26.10;1.00
4813;DHT22;2420;51.202;8.698;2023-06-19T08:41:15;26.00;1.00
4813;DHT22;2420;51.202;8.698;2023-06-19T08:43:41;26.10;1.00
4813;DHT22;2420;51.202;8.698;2023-06-19T08:46:18;25.90;1.00
4813;DHT22;2420;51.202;8.698;2023-06-19T08:48:44;26.10;1.00
4813;DHT22;2420;51.202;8.698;2023-06-19T08:51:10;26.30;1.00
4813;DHT22;2420;51.202;8.698;2023-06-19T08:53:47;26.60;1.00
4813;DHT22;2420;51.202;8.698;2023-06-19T08:56:13;26.50;1.00
4813;DHT22;2420;51.202;8.698;2023-06-19T08:58:39;26.70;1.00
4813;DHT22;2420;51.202;8.698;2023-06-19T09:01:04;26.70;1.00
4813;DHT22;2420;51.202;8.698;2023-06-19T09:03:30;26.80;1.00
4813;DHT22;2420;51.202;8.698;2023-06-19T09:05:55;26.80;1.00
4813;DHT22;2420;51.202;8.698;2023-06-19T09:08:22;26.90;1.00
4813;DHT22;2420;51.202;8.698;2023-06-19T09:11:04;26.80;1.00
4813;DHT22;2420;51.202;8.698;2023-06-19T09:13:30;26.90;1.00
4813;DHT22;2420;51.202;8.698;2023-06-19T09:16:07;27.00;1.00
4813;DHT22;2420;51.202;8.698;2023-06-19T09:18:45;27.00;1.00
4813;DHT22;2420;51.202;8.698;2023-06-19T09:21:18;26.80;1.00
4813;DHT22;2420;51.202;8.698;2023-06-19T09:23:45;27.20;1.00
4813;DHT22;2420;51.202;8.698;2023-06-19T09:26:14;27.50;1.00
4813;DHT22;2420;51.202;8.698;2023-06-19T09:28:41;27.90;1.00
4813;DHT22;2420;51.202;8.698;2023-06-19T09:31:08;27.80;1.00
4813;DHT22;2420;51.202;8.698;2023-06-19T09:33:34;28.00;1.00
4813;DHT22;2420;51.202;8.698;2023-06-19T09:36:03;28.20;1.00
4813;DHT22;2420;51.202;8.698;2023-06-19T09:38:36;28.10;1.00
4813;DHT22;2420;51.202;8.698;2023-06-19T09:41:04;28.20;1.00
4813;DHT22;2420;51.202;8.698;2023-06-19T09:43:37;28.20;1.00
4813;DHT22;2420;51.202;8.698;2023-06-19T09:46:04;28.20;1.00
4813;DHT22;2420;51.202;8.698;2023-06-19T09:48:34;28.40;1.00
4813;DHT22;2420;51.202;8.698;2023-06-19T09:53:39;28.20;1.00
4813;DHT22;2420;51.202;8.698;2023-06-19T09:56:05;28.00;1.00
4813;DHT22;2420;51.202;8.698;2023-06-19T09:58:33;27.70;1.00
4813;DHT22;2420;51.202;8.698;2023-06-19T10:01:03;27.70;1.00
4813;DHT22;2420;51.202;8.698;2023-06-19T10:03:33;27.70;1.00
4813;DHT22;2420;51.202;8.698;2023-06-19T10:06:00;28.10;1.00
4813;DHT22;2420;51.202;8.698;2023-06-19T10:08:39;28.40;1.00
4813;DHT22;2420;51.202;8.698;2023-06-19T10:11:05;28.50;1.00
4813;DHT22;2420;51.202;8.698;2023-06-19T10:13:32;28.70;1.00
4813;DHT22;2420;51.202;8.698;2023-06-19T10:15:59;28.70;1.00
4813;DHT22;2420;51.202;8.698;2023-06-19T10:18:25;28.80;1.00
4813;DHT22;2420;51.202;8.698;2023-06-19T10:20:53;28.90;1.00
4813;DHT22;2420;51.202;8.698;2023-06-19T10:23:24;29.00;1.00
4813;DHT22;2420;51.202;8.698;2023-06-19T10:26:00;29.20;1.00
4813;DHT22;2420;51.202;8.698;2023-06-19T10:31:05;29.30;1.00
4813;DHT22;2420;51.202;8.698;2023-06-19T10:33:33;28.90;1.00
4813;DHT22;2420;51.202;8.698;2023-06-19T10:36:00;28.70;1.00
4813;DHT22;2420;51.202;8.698;2023-06-19T10:38:26;28.50;1.00
4813;DHT22;2420;51.202;8.698;2023-06-19T10:40:52;28.20;1.00
4813;DHT22;2420;51.202;8.698;2023-06-19T10:43:22;27.70;1.00
4813;DHT22;2420;51.202;8.698;2023-06-19T10:45:50;27.70;1.00
4813;DHT22;2420;51.202;8.698;2023-06-19T10:48:20;27.50;1.00
4813;DHT22;2420;51.202;8.698;2023-06-19T10:50:47;27.30;1.00
4813;DHT22;2420;51.202;8.698;2023-06-19T10:53:32;27.20;1.00
4813;DHT22;2420;51.202;8.698;2023-06-19T10:55:59;27.20;1.00
4813;DHT22;2420;51.202;8.698;2023-06-19T10:58:25;27.30;1.00
4813;DHT22;2420;51.202;8.698;2023-06-19T11:00:51;27.60;1.00
4813;DHT22;2420;51.202;8.698;2023-06-19T11:03:18;27.90;1.00
4813;DHT22;2420;51.202;8.698;2023-06-19T11:05:44;28.50;1.00
4813;DHT22;2420;51.202;8.698;2023-06-19T11:08:10;28.80;1.00
4813;DHT22;2420;51.202;8.698;2023-06-19T11:10:36;28.90;1.00
4813;DHT22;2420;51.202;8.698;2023-06-19T11:13:02;28.60;1.00
4813;DHT22;2420;51.202;8.698;2023-06-19T11:15:32;28.40;1.00
4813;DHT22;2420;51.202;8.698;2023-06-19T11:17:58;28.80;1.00
4813;DHT22;2420;51.202;8.698;2023-06-19T11:20:24;28.90;1.00
4813;DHT22;2420;51.202;8.698;2023-06-19T11:23:00;28.60;1.00
4813;DHT22;2420;51.202;8.698;2023-06-19T11:25:36;28.20;1.00
4813;DHT22;2420;51.202;8.698;2023-06-19T11:28:02;27.80;1.00
4813;DHT22;2420;51.202;8.698;2023-06-19T11:30:32;27.70;1.00
4813;DHT22;2420;51.202;8.698;2023-06-19T11:32:57;27.60;1.00
4813;DHT22;2420;51.202;8.698;2023-06-19T11:35:23;27.90;1.00
4813;DHT22;2420;51.202;8.698;2023-06-19T11:37:49;28.50;1.00
4813;DHT22;2420;51.202;8.698;2023-06-19T11:40:14;28.80;1.00
4813;DHT22;2420;51.202;8.698;2023-06-19T11:42:48;28.80;1.00
4813;DHT22;2420;51.202;8.698;2023-06-19T11:45:14;28.60;1.00
4813;DHT22;2420;51.202;8.698;2023-06-19T11:47:40;28.70;1.00
4813;DHT22;2420;51.202;8.698;2023-06-19T11:50:06;28.70;1.00
4813;DHT22;2420;51.202;8.698;2023-06-19T11:52:32;28.40;1.00
4813;DHT22;2420;51.202;8.698;2023-06-19T11:54:57;28.30;1.00
4813;DHT22;2420;51.202;8.698;2023-06-19T11:57:23;28.20;1.00
4813;DHT22;2420;51.202;8.698;2023-06-19T11:59:48;28.10;1.00
4813;DHT22;2420;51.202;8.698;2023-06-19T12:02:14;28.20;1.00
4813;DHT22;2420;51.202;8.698;2023-06-19T12:04:39;28.10;1.00
4813;DHT22;2420;51.202;8.698;2023-06-19T12:07:05;27.90;1.00
4813;DHT22;2420;51.202;8.698;2023-06-19T12:09:31;28.20;1.00
4813;DHT22;2420;51.202;8.698;2023-06-19T12:12:00;28.60;1.00
4813;DHT22;2420;51.202;8.698;2023-06-19T12:14:26;28.70;1.00
4813;DHT22;2420;51.202;8.698;2023-06-19T12:16:52;28.30;1.00
4813;DHT22;2420;51.202;8.698;2023-06-19T12:19:17;28.00;1.00
4813;DHT22;2420;51.202;8.698;2023-06-19T12:21:43;28.60;1.00
4813;DHT22;2420;51.202;8.698;2023-06-19T12:24:09;29.00;1.00
4813;DHT22;2420;51.202;8.698;2023-06-19T12:26:35;29.10;1.00
4813;DHT22;2420;51.202;8.698;2023-06-19T12:29:06;29.60;1.00
4813;DHT22;2420;51.202;8.698;2023-06-19T12:31:35;30.00;1.00
4813;DHT22;2420;51.202;8.698;2023-06-19T12:34:02;30.20;1.00
4813;DHT22;2420;51.202;8.698;2023-06-19T12:36:28;30.40;1.00
4813;DHT22;2420;51.202;8.698;2023-06-19T12:38:54;30.20;1.00
4813;DHT22;2420;51.202;8.698;2023-06-19T12:41:20;29.90;1.00
4813;DHT22;2420;51.202;8.698;2023-06-19T12:43:46;29.60;1.00
4813;DHT22;2420;51.202;8.698;2023-06-19T12:46:12;29.50;1.00
4813;DHT22;2420;51.202;8.698;2023-06-19T12:48:38;29.50;1.00
4813;DHT22;2420;51.202;8.698;2023-06-19T12:51:03;29.30;1.00
4813;DHT22;2420;51.202;8.698;2023-06-19T12:53:29;29.30;1.00
4813;DHT22;2420;51.202;8.698;2023-06-19T12:55:59;29.40;1.00
4813;DHT22;2420;51.202;8.698;2023-06-19T12:58:25;29.30;1.00
4813;DHT22;2420;51.202;8.698;2023-06-19T13:00:51;29.20;1.00
4813;DHT22;2420;51.202;8.698;2023-06-19T13:03:17;29.30;1.00
4813;DHT22;2420;51.202;8.698;2023-06-19T13:05:44;29.40;1.00
4813;DHT22;2420;51.202;8.698;2023-06-19T13:08:10;29.50;1.00
4813;DHT22;2420;51.202;8.698;2023-06-19T13:10:35;29.30;1.00
4813;DHT22;2420;51.202;8.698;2023-06-19T13:13:01;29.20;1.00
4813;DHT22;2420;51.202;8.698;2023-06-19T13:15:26;29.00;1.00
4813;DHT22;2420;51.202;8.698;2023-06-19T13:17:53;29.10;1.00
4813;DHT22;2420;51.202;8.698;2023-06-19T13:20:18;29.40;1.00
4813;DHT22;2420;51.202;8.698;2023-06-19T13:22:44;29.30;1.00
4813;DHT22;2420;51.202;8.698;2023-06-19T13:25:09;29.30;1.00
4813;DHT22;2420;51.202;8.698;2023-06-19T13:27:35;29.30;1.00
4813;DHT22;2420;51.202;8.698;2023-06-19T13:30:02;29.30;1.00
4813;DHT22;2420;51.202;8.698;2023-06-19T13:32:28;29.40;1.00
4813;DHT22;2420;51.202;8.698;2023-06-19T13:34:53;29.60;1.00
4813;DHT22;2420;51.202;8.698;2023-06-19T13:37:19;29.70;1.00
4813;DHT22;2420;51.202;8.698;2023-06-19T13:39:45;29.90;1.00
4813;DHT22;2420;51.202;8.698;2023-06-19T13:42:11;29.90;1.00
4813;DHT22;2420;51.202;8.698;2023-06-19T13:44:37;29.90;1.00
4813;DHT22;2420;51.202;8.698;2023-06-19T13:47:04;29.60;1.00
4813;DHT22;2420;51.202;8.698;2023-06-19T13:49:30;29.60;1.00
4813;DHT22;2420;51.202;8.698;2023-06-19T13:51:55;29.50;1.00
4813;DHT22;2420;51.202;8.698;2023-06-19T13:54:21;29.40;1.00
4813;DHT22;2420;51.202;8.698;2023-06-19T13:56:47;29.40;1.00
4813;DHT22;2420;51.202;8.698;2023-06-19T13:59:14;29.10;1.00
4813;DHT22;2420;51.202;8.698;2023-06-19T14:01:40;28.90;1.00
4813;DHT22;2420;51.202;8.698;2023-06-19T14:04:06;28.60;1.00
4813;DHT22;2420;51.202;8.698;2023-06-19T14:06:32;28.40;1.00
4813;DHT22;2420;51.202;8.698;2023-06-19T14:08:57;28.60;1.00
4813;DHT22;2420;51.202;8.698;2023-06-19T14:11:23;28.60;1.00
4813;DHT22;2420;51.202;8.698;2023-06-19T14:13:48;28.80;1.00
4813;DHT22;2420;51.202;8.698;2023-06-19T14:16:15;28.80;1.00
4813;DHT22;2420;51.202;8.698;2023-06-19T14:18:40;28.90;1.00
4813;DHT22;2420;51.202;8.698;2023-06-19T14:21:06;28.90;1.00
4813;DHT22;2420;51.202;8.698;2023-06-19T14:23:32;28.90;1.00
4813;DHT22;2420;51.202;8.698;2023-06-19T14:25:59;28.90;1.00
4813;DHT22;2420;51.202;8.698;2023-06-19T14:28:25;29.10;1.00
4813;DHT22;2420;51.202;8.698;2023-06-19T14:30:50;29.30;1.00
4813;DHT22;2420;51.202;8.698;2023-06-19T14:33:16;29.30;1.00
4813;DHT22;2420;51.202;8.698;2023-06-19T14:35:42;29.60;1.00
4813;DHT22;2420;51.202;8.698;2023-06-19T14:38:10;29.50;1.00
4813;DHT22;2420;51.202;8.698;2023-06-19T14:40:35;29.20;1.00
4813;DHT22;2420;51.202;8.698;2023-06-19T14:43:01;29.20;1.00
4813;DHT22;2420;51.202;8.698;2023-06-19T14:45:26;29.20;1.00
4813;DHT22;2420;51.202;8.698;2023-06-19T14:47:52;29.30;1.00
4813;DHT22;2420;51.202;8.698;2023-06-19T14:50:18;29.00;1.00
4813;DHT22;2420;51.202;8.698;2023-06-19T14:52:43;28.80;1.00
4813;DHT22;2420;51.202;8.698;2023-06-19T14:55:10;28.60;1.00
4813;DHT22;2420;51.202;8.698;2023-06-19T14:57:36;28.40;1.00
4813;DHT22;2420;51.202;8.698;2023-06-19T15:00:01;28.10;1.00
4813;DHT22;2420;51.202;8.698;2023-06-19T15:02:27;28.00;1.00
4813;DHT22;2420;51.202;8.698;2023-06-19T15:04:53;27.80;1.00
4813;DHT22;2420;51.202;8.698;2023-06-19T15:07:18;27.70;1.00
4813;DHT22;2420;51.202;8.698;2023-06-19T15:09:44;27.70;1.00
4813;DHT22;2420;51.202;8.698;2023-06-19T15:12:10;27.70;1.00
4813;DHT22;2420;51.202;8.698;2023-06-19T15:14:35;27.90;1.00
4813;DHT22;2420;51.202;8.698;2023-06-19T15:17:03;28.10;1.00
4813;DHT22;2420;51.202;8.698;2023-06-19T15:19:29;28.50;1.00
4813;DHT22;2420;51.202;8.698;2023-06-19T15:21:54;28.50;1.00
4813;DHT22;2420;51.202;8.698;2023-06-19T15:24:20;28.60;1.00
4813;DHT22;2420;51.202;8.698;2023-06-19T15:26:45;28.50;1.00
4813;DHT22;2420;51.202;8.698;2023-06-19T15:29:11;28.70;1.00
4813;DHT22;2420;51.202;8.698;2023-06-19T15:31:37;28.70;1.00
4813;DHT22;2420;51.202;8.698;2023-06-19T15:34:02;28.70;1.00
4813;DHT22;2420;51.202;8.698;2023-06-19T15:36:28;28.70;1.00
4813;DHT22;2420;51.202;8.698;2023-06-19T15:38:53;28.30;1.00
4813;DHT22;2420;51.202;8.698;2023-06-19T15:41:19;28.30;1.00
4813;DHT22;2420;51.202;8.698;2023-06-19T15:43:44;28.30;1.00
4813;DHT22;2420;51.202;8.698;2023-06-19T15:46:16;28.00;1.00
4813;DHT22;2420;51.202;8.698;2023-06-19T15:48:42;28.00;1.00
4813;DHT22;2420;51.202;8.698;2023-06-19T15:51:09;27.80;1.00
4813;DHT22;2420;51.202;8.698;2023-06-19T15:53:37;27.70;1.00
4813;DHT22;2420;51.202;8.698;2023-06-19T15:56:03;27.60;1.00
4813;DHT22;2420;51.202;8.698;2023-06-19T15:58:28;27.60;1.00
4813;DHT22;2420;51.202;8.698;2023-06-19T16:00:54;27.70;1.00
4813;DHT22;2420;51.202;8.698;2023-06-19T16:03:20;27.60;1.00
4813;DHT22;2420;51.202;8.698;2023-06-19T16:05:47;27.70;1.00
4813;DHT22;2420;51.202;8.698;2023-06-19T16:08:16;27.70;1.00
4813;DHT22;2420;51.202;8.698;2023-06-19T16:10:43;27.70;1.00
4813;DHT22;2420;51.202;8.698;2023-06-19T16:13:09;27.80;1.00
4813;DHT22;2420;51.202;8.698;2023-06-19T16:15:35;27.80;1.00
4813;DHT22;2420;51.202;8.698;2023-06-19T16:18:00;27.80;1.00